Time;durP1;ratioP1;P1;durP2;ratioP2;P2;SDS_P1;SDS_P2;PMS_P1;PMS_P2;Temp;Humidity;BMP_temperature;BMP_pressure;BME280_temperature;BME280_humidity;BME280_pressure;Samples;Min_cycle;Max_cycle;Signal;HPM_P1;HPM_P2
2023/10/09 00:01:17;;;;;;;9.80;2.13;;;;;;;18.05;71.72;64869.72;5093335;28;20206;-51
2023/10/09 00:03:46;;;;;;;7.45;2.75;;;;;;;18.05;71.89;64869.72;5093493;28;20661;-50
2023/10/09 00:06:15;;;;;;;5.90;2.08;;;;;;;17.98;72.31;64865.09;5093107;28;20194;-51
2023/10/09 00:08:44;;;;;;;10.70;2.65;;;;;;;17.96;72.19;64857.78;5093268;28;20227;-51
2023/10/09 00:11:15;;;;;;;3.33;1.73;;;;;;;17.97;71.89;64864.00;5093117;28;20226;-52
2023/10/09 00:13:52;;;;;;;6.85;2.05;;;;;;;17.95;71.75;64859.25;5093345;28;20204;-51
2023/10/09 00:16:46;;;;;;;6.15;2.20;;;;;;;17.88;72.29;64851.50;5093024;28;20202;-51
2023/10/09 00:19:20;;;;;;;3.45;1.60;;;;;;;17.83;72.62;64846.00;5093384;28;20207;-52
2023/10/09 00:21:50;;;;;;;4.95;1.83;;;;;;;17.82;72.51;64846.88;5092961;28;20208;-52
2023/10/09 00:24:24;;;;;;;7.00;2.40;;;;;;;17.75;72.72;64837.19;5093331;28;20207;-51
2023/10/09 00:27:01;;;;;;;6.32;2.03;;;;;;;17.75;72.66;64836.63;5074592;28;20203;-52
2023/10/09 00:29:34;;;;;;;7.25;2.63;;;;;;;17.71;72.97;64832.22;5092634;28;20231;-51
2023/10/09 00:32:13;;;;;;;8.88;1.65;;;;;;;17.61;72.71;64819.75;5074866;28;20208;-51
2023/10/09 00:34:41;;;;;;;5.68;1.80;;;;;;;17.61;73.13;64827.41;5074691;28;20297;-52
2023/10/09 00:37:17;;;;;;;5.90;2.03;;;;;;;17.52;73.45;64814.38;5092538;28;20277;-53
2023/10/09 00:39:43;;;;;;;4.47;2.00;;;;;;;17.49;73.82;64811.09;5092572;28;20206;-52
2023/10/09 00:42:14;;;;;;;6.88;2.45;;;;;;;17.54;73.65;64811.50;5092458;28;20204;-55
2023/10/09 00:44:41;;;;;;;3.90;1.83;;;;;;;17.41;73.99;64802.25;5074227;28;20193;-52
2023/10/09 00:47:21;;;;;;;4.57;1.50;;;;;;;17.31;74.29;64788.69;5074330;28;20260;-52
2023/10/09 00:52:53;;;;;;;1.85;1.65;;;;;;;17.25;74.50;64785.16;5090621;28;20228;-51
2023/10/09 00:55:21;;;;;;;5.70;1.80;;;;;;;17.22;74.64;64779.31;5092359;28;20606;-51
2023/10/09 00:57:58;;;;;;;5.70;1.92;;;;;;;17.18;74.92;64771.81;5092402;28;20215;-58
2023/10/09 01:03:19;;;;;;;4.00;1.80;;;;;;;17.04;74.88;64762.03;5092316;28;20200;-53
2023/10/09 01:05:52;;;;;;;4.35;1.52;;;;;;;16.98;75.05;64752.88;5092541;28;20208;-53
2023/10/09 01:11:09;;;;;;;3.72;1.77;;;;;;;16.90;74.76;64746.06;5092582;28;20274;-51
2023/10/09 01:13:40;;;;;;;3.90;1.85;;;;;;;16.83;75.14;64733.78;5092314;28;20677;-52
2023/10/09 01:16:13;;;;;;;4.72;1.58;;;;;;;16.79;75.12;64734.47;5074109;28;20211;-51
2023/10/09 01:18:40;;;;;;;9.35;2.03;;;;;;;16.77;75.50;64734.81;5074341;28;20194;-50
2023/10/09 01:21:06;;;;;;;5.00;1.63;;;;;;;16.72;74.88;64726.78;5092089;28;20204;-53
2023/10/09 01:23:32;;;;;;;1.40;1.20;;;;;;;16.71;75.18;64726.22;5092227;28;20605;-53
2023/10/09 01:25:57;;;;;;;5.65;1.35;;;;;;;16.64;74.96;64718.50;5091929;28;20211;-52
2023/10/09 01:28:24;;;;;;;3.85;1.30;;;;;;;16.59;74.68;64710.47;5091977;28;20364;-56
2023/10/09 01:30:51;;;;;;;3.60;1.42;;;;;;;16.52;74.68;64702.22;5073886;28;20294;-52
2023/10/09 01:33:27;;;;;;;5.03;1.58;;;;;;;16.50;74.07;64700.56;5092091;28;20204;-52
2023/10/09 01:35:58;;;;;;;8.07;1.70;;;;;;;16.43;74.42;64692.84;5073717;28;20195;-51
2023/10/09 01:39:01;;;;;;;3.65;1.45;;;;;;;16.31;74.66;64679.63;5073769;28;20211;-52
2023/10/09 01:41:19;;;;;;;7.20;1.65;;;;;;;16.27;74.83;64675.22;5087429;28;20281;-52
2023/10/09 01:43:45;;;;;;;6.60;1.40;;;;;;;16.25;74.96;64673.03;5091813;28;20232;-52
2023/10/09 01:46:12;;;;;;;6.82;1.95;;;;;;;16.04;76.06;64649.91;5073742;28;20203;-53
2023/10/09 01:48:46;;;;;;;5.32;1.55;;;;;;;16.11;75.66;64659.59;5091489;28;20208;-51
2023/10/09 01:51:17;;;;;;;5.60;1.70;;;;;;;15.93;76.20;64635.81;5092004;28;20195;-51
2023/10/09 01:53:43;;;;;;;3.47;1.50;;;;;;;15.95;76.35;64640.00;5091737;28;20203;-51
2023/10/09 01:56:15;;;;;;;4.97;1.70;;;;;;;15.96;76.09;64643.63;5091460;28;20283;-51
2023/10/09 01:58:41;;;;;;;6.20;1.58;;;;;;;15.82;76.60;64628.78;5091712;28;20709;-51
2023/10/09 02:01:06;;;;;;;4.70;1.55;;;;;;;15.70;76.74;64612.50;5091456;28;20553;-51
2023/10/09 02:03:37;;;;;;;2.80;1.40;;;;;;;15.73;77.24;64615.81;5091451;28;20624;-52
2023/10/09 02:06:05;;;;;;;5.55;1.65;;;;;;;15.63;77.50;64605.34;5073101;28;20662;-52
2023/10/09 02:08:35;;;;;;;6.57;1.63;;;;;;;15.52;76.71;64595.22;5091248;28;20693;-53
2023/10/09 02:11:02;;;;;;;8.60;1.65;;;;;;;15.50;77.51;64593.59;5091276;28;20211;-52
2023/10/09 02:13:34;;;;;;;8.95;1.85;;;;;;;15.53;77.82;64594.34;5091611;28;20275;-53
2023/10/09 02:16:15;;;;;;;6.43;1.38;;;;;;;15.44;77.20;64583.88;5073239;28;20200;-53
2023/10/09 02:18:53;;;;;;;4.93;1.55;;;;;;;15.49;77.60;64592.50;5091506;28;20208;-53
2023/10/09 02:21:41;;;;;;;6.05;1.80;;;;;;;15.29;77.80;64569.91;5091107;28;20200;-53
2023/10/09 02:24:09;;;;;;;5.47;1.80;;;;;;;15.16;78.44;64556.16;5091458;28;20231;-55
2023/10/09 02:29:15;;;;;;;4.25;1.30;;;;;;;15.03;78.90;64536.78;5091271;28;20239;-55
2023/10/09 02:31:41;;;;;;;2.50;1.10;;;;;;;14.98;79.31;64534.41;5092713;22;20228;-51
2023/10/09 02:34:15;;;;;;;3.83;1.42;;;;;;;14.99;79.83;64537.47;5070778;28;20211;-53
2023/10/09 02:36:49;;;;;;;4.88;1.40;;;;;;;14.83;80.13;64520.44;5069735;28;20204;-51
2023/10/09 02:39:25;;;;;;;2.90;1.20;;;;;;;14.81;80.74;64515.69;5070004;28;20690;-52
2023/10/09 02:42:00;;;;;;;2.15;1.10;;;;;;;14.93;80.13;64531.44;5070688;28;20248;-51
2023/10/09 02:44:26;;;;;;;5.15;1.38;;;;;;;14.90;80.30;64527.59;5069163;28;20227;-51
2023/10/09 02:46:51;;;;;;;5.22;1.45;;;;;;;15.03;79.81;64542.44;5069049;28;20261;-52
2023/10/09 02:49:18;;;;;;;4.85;1.20;;;;;;;14.90;79.71;64530.13;5070673;28;20200;-53
2023/10/09 02:51:47;;;;;;;8.57;1.50;;;;;;;14.93;80.18;64528.88;5073187;28;20296;-53
2023/10/09 02:56:56;;;;;;;1.80;1.10;;;;;;;14.78;80.18;64514.94;5077650;28;20262;-54
2023/10/09 02:59:22;;;;;;;2.72;1.52;;;;;;;14.69;80.94;64505.06;5075850;28;20215;-51
2023/10/09 03:01:49;;;;;;;2.97;1.52;;;;;;;14.83;80.65;64517.34;5077150;28;20224;-52
2023/10/09 03:04:15;;;;;;;4.60;1.20;;;;;;;14.79;80.22;64510.41;5077195;28;20199;-51
2023/10/09 03:06:50;;;;;;;2.08;1.40;;;;;;;14.60;80.72;64495.16;5077223;28;20216;-50
2023/10/09 03:09:26;;;;;;;4.05;1.42;;;;;;;14.59;80.77;64491.53;5083121;22;20228;-50
2023/10/09 03:11:54;;;;;;;2.97;1.25;;;;;;;14.56;81.22;64490.78;5075659;28;20208;-51
2023/10/09 03:14:28;;;;;;;4.30;1.42;;;;;;;14.47;80.92;64475.81;5075768;28;20240;-52
2023/10/09 03:16:56;;;;;;;2.45;1.00;;;;;;;14.32;81.99;64463.84;5077358;28;20242;-51
2023/10/09 03:19:22;;;;;;;3.75;1.63;;;;;;;14.24;81.60;64453.06;5076823;28;20205;-52
2023/10/09 03:21:47;;;;;;;3.53;1.25;;;;;;;14.31;81.21;64463.28;5076803;28;20208;-52
2023/10/09 03:24:13;;;;;;;3.65;1.02;;;;;;;14.18;81.71;64447.00;5077003;28;20203;-51
2023/10/09 03:26:38;;;;;;;6.05;1.30;;;;;;;14.19;81.86;64448.09;5076988;28;20216;-52
2023/10/09 03:29:09;;;;;;;1.23;1.10;;;;;;;14.11;82.36;64438.75;5076973;28;20204;-52
2023/10/09 03:31:36;;;;;;;1.67;0.93;;;;;;;14.65;83.46;64500.09;5077052;28;20209;-52
2023/10/09 03:34:03;;;;;;;1.63;1.20;;;;;;;14.27;82.29;64458.88;5076809;28;20212;-55
2023/10/09 03:36:30;;;;;;;2.53;1.27;;;;;;;14.15;82.91;64445.69;5075394;28;20212;-55
2023/10/09 03:38:59;;;;;;;5.43;1.30;;;;;;;13.99;82.96;64426.13;5076627;28;20285;-56
2023/10/09 03:41:29;;;;;;;2.65;0.95;;;;;;;13.92;83.38;64418.44;5076897;28;20258;-54
2023/10/09 03:43:54;;;;;;;1.20;0.82;;;;;;;13.79;83.72;64409.25;5077043;28;20236;-54
2023/10/09 03:46:26;;;;;;;4.15;0.82;;;;;;;13.74;83.94;64401.22;5076710;28;20599;-55
2023/10/09 03:48:57;;;;;;;1.92;1.13;;;;;;;13.62;84.12;64384.94;5076763;28;20593;-53
2023/10/09 03:51:23;;;;;;;3.17;0.83;;;;;;;13.67;84.52;64392.97;5076453;28;20698;-54
2023/10/09 03:53:49;;;;;;;2.75;1.00;;;;;;;13.63;83.97;64389.16;5076424;28;20209;-54
2023/10/09 03:56:17;;;;;;;3.63;0.98;;;;;;;13.58;83.43;64383.09;5076293;28;20661;-54
2023/10/09 03:58:48;;;;;;;1.77;0.80;;;;;;;13.55;83.32;64377.28;5076474;28;20209;-54
2023/10/09 04:01:37;;;;;;;1.63;1.15;;;;;;;13.48;82.64;64370.69;5076383;28;20235;-56
2023/10/09 04:04:06;;;;;;;1.42;1.02;;;;;;;13.43;82.19;64364.66;5073316;28;20212;-55
2023/10/09 04:06:32;;;;;;;2.25;0.70;;;;;;;13.35;82.79;64358.41;5073037;28;20216;-53
2023/10/09 04:11:49;;;;;;;1.02;0.80;;;;;;;13.34;82.73;64355.31;5073131;28;20212;-52
2023/10/09 04:14:35;;;;;;;6.63;1.20;;;;;;;13.29;82.92;64351.81;5073127;28;20215;-52
2023/10/09 04:20:16;;;;;;;3.33;0.95;;;;;;;13.24;82.93;64341.25;5073110;28;20227;-53
2023/10/09 04:22:42;;;;;;;2.38;0.80;;;;;;;13.17;82.73;64339.19;5072472;28;20220;-52
2023/10/09 04:25:14;;;;;;;2.58;1.00;;;;;;;13.28;81.75;64353.78;5071848;28;20205;-52
2023/10/09 04:27:44;;;;;;;2.17;1.08;;;;;;;13.23;81.95;64345.25;5072632;28;20220;-52
2023/10/09 04:30:15;;;;;;;3.80;1.10;;;;;;;13.13;80.99;64334.78;5072808;28;20197;-52
2023/10/09 04:32:45;;;;;;;1.10;0.73;;;;;;;13.13;79.80;64334.78;5071102;28;20259;-51
2023/10/09 04:35:24;;;;;;;1.08;1.00;;;;;;;13.09;78.46;64330.41;5071381;28;20451;-52
2023/10/09 04:38:00;;;;;;;1.02;0.70;;;;;;;13.09;77.59;64329.88;5070978;28;20208;-52
2023/10/09 04:40:48;;;;;;;2.00;0.85;;;;;;;13.07;77.53;64328.22;5079324;22;20331;-54
2023/10/09 04:43:22;;;;;;;1.50;0.75;;;;;;;13.01;77.36;64321.59;5070873;28;20213;-52
2023/10/09 04:46:08;;;;;;;3.80;1.00;;;;;;;13.03;74.67;64320.75;5072341;28;20197;-54
2023/10/09 04:48:37;;;;;;;1.27;1.00;;;;;;;13.64;80.18;64389.69;5072211;28;20228;-54
2023/10/09 04:54:12;;;;;;;2.92;0.90;;;;;;;13.16;75.51;64335.56;5072405;28;20216;-53
2023/10/09 04:56:51;;;;;;;1.88;0.90;;;;;;;13.07;75.90;64328.22;5072389;28;20263;-53
2023/10/09 04:59:18;;;;;;;1.15;0.70;;;;;;;13.09;75.00;64327.34;5071203;28;20295;-53
2023/10/09 05:01:46;;;;;;;19.63;7.53;;;;;;;13.43;100.00;64367.72;5072456;28;20209;-54
2023/10/09 05:10:14;;;;;;;2.25;1.45;;;;;;;13.05;74.13;64326.00;5072119;28;20177;-53
2023/10/09 05:12:46;;;;;;;1.20;0.90;;;;;;;13.09;73.10;64330.41;5070648;28;20236;-51
2023/10/09 05:15:14;;;;;;;3.15;1.17;;;;;;;13.15;71.19;64337.00;5070840;28;20200;-53
2023/10/09 05:17:45;;;;;;;1.20;0.93;;;;;;;13.20;71.15;64342.50;5071816;28;20278;-57
2023/10/09 05:22:58;;;;;;;1.48;1.30;;;;;;;13.05;70.07;64322.94;5071792;28;20220;-51
2023/10/09 05:28:48;;;;;;;2.97;1.38;;;;;;;13.01;70.35;64319.06;5071676;28;20235;-52
2023/10/09 05:31:33;;;;;;;1.83;1.40;;;;;;;13.01;70.57;64321.59;5071405;28;20271;-52
2023/10/09 05:34:01;;;;;;;4.90;1.80;;;;;;;13.13;70.12;64334.78;5071691;28;20201;-54
2023/10/09 05:38:58;;;;;;;3.15;1.95;;;;;;;13.09;68.69;64330.41;5071569;28;20200;-55
2023/10/09 05:49:46;;;;;;;3.60;1.33;;;;;;;13.14;66.11;64335.34;5071488;28;20226;-53
2023/10/09 06:06:18;;;;;;;2.03;1.10;;;;;;;13.17;63.55;64338.66;5071438;28;20243;-53
2023/10/09 06:14:14;;;;;;;2.03;1.35;;;;;;;13.31;62.94;64351.47;5071069;28;20223;-52
2023/10/09 06:16:41;;;;;;;2.35;1.17;;;;;;;13.30;62.56;64350.94;5070846;28;20770;-51
2023/10/09 06:19:08;;;;;;;1.17;0.90;;;;;;;13.32;61.46;64352.56;5071032;28;20640;-54
2023/10/09 06:34:46;;;;;;;3.35;1.90;;;;;;;13.61;58.66;64386.41;5070833;28;20224;-53
2023/10/09 06:42:43;;;;;;;4.05;1.20;;;;;;;13.53;56.87;64378.16;5070894;28;20224;-52
2023/10/09 06:47:55;;;;;;;3.07;1.70;;;;;;;13.69;57.54;64393.19;5070481;28;20217;-51
2023/10/09 06:55:49;;;;;;;5.25;1.00;;;;;;;14.09;55.51;64437.13;5070407;28;20196;-54
2023/10/09 06:58:22;;;;;;;4.03;1.63;;;;;;;14.27;55.67;64453.81;5052421;28;20216;-54
2023/10/09 07:03:32;;;;;;;2.80;1.50;;;;;;;14.21;52.85;64449.75;5070661;28;20239;-56
2023/10/09 07:06:09;;;;;;;3.78;1.08;;;;;;;14.08;52.16;64438.56;5070922;28;20215;-51
2023/10/09 07:08:38;;;;;;;2.13;1.13;;;;;;;14.05;52.06;64432.72;5070386;28;20686;-52
2023/10/09 07:24:49;;;;;;;2.63;1.35;;;;;;;14.61;49.36;64493.72;5070496;28;20204;-54
2023/10/09 07:27:43;;;;;;;1.48;1.30;;;;;;;14.70;50.20;64505.59;5069983;28;20228;-55
2023/10/09 07:30:35;;;;;;;4.05;1.20;;;;;;;14.67;49.53;64500.31;5070123;28;20304;-54
2023/10/09 07:32:54;;;;;;;3.58;1.60;;;;;;;14.88;49.56;64525.38;5069742;28;20252;-53
2023/10/09 07:35:46;;;;;;;5.15;1.92;;;;;;;15.29;48.76;64567.38;5070184;28;20203;-54
2023/10/09 07:38:09;;;;;;;2.65;1.80;;;;;;;15.29;47.85;64567.91;5070389;28;20208;-54
2023/10/09 07:43:28;;;;;;;3.53;1.30;;;;;;;15.32;47.07;64573.22;5073790;28;20571;-54
2023/10/09 07:48:25;;;;;;;1.67;1.05;;;;;;;15.26;47.14;64564.06;5073228;28;20225;-54
2023/10/09 07:50:57;;;;;;;1.30;1.20;;;;;;;15.47;46.80;64587.75;5073640;28;20203;-56
2023/10/09 07:53:26;;;;;;;1.58;1.20;;;;;;;15.30;45.92;64571.00;5055432;28;20224;-53
2023/10/09 07:55:58;;;;;;;3.58;1.40;;;;;;;15.31;45.12;64567.56;5073424;28;20208;-55
2023/10/09 07:58:27;;;;;;;1.30;1.20;;;;;;;15.29;44.50;64567.91;5079412;22;20233;-54
2023/10/09 08:01:06;;;;;;;1.35;1.20;;;;;;;15.61;44.43;64603.16;5073266;28;20201;-53
2023/10/09 08:03:33;;;;;;;1.98;1.40;;;;;;;15.55;43.57;64599.09;5036624;28;20268;-52
2023/10/09 08:19:53;;;;;;;3.03;1.10;;;;;;;16.63;42.16;64714.88;5053220;28;20209;-53
2023/10/09 08:22:42;;;;;;;1.13;0.85;;;;;;;16.88;40.50;64741.84;5053049;28;20209;-53
2023/10/09 08:25:08;;;;;;;2.25;1.70;;;;;;;16.93;40.91;64746.81;5052756;28;20316;-52
2023/10/09 08:35:47;;;;;;;1.00;0.90;;;;;;;16.81;39.81;64731.59;5031580;28;20217;-51
2023/10/09 08:38:14;;;;;;;1.75;1.30;;;;;;;17.16;39.31;64770.16;5052639;28;20653;-54
2023/10/09 08:40:42;;;;;;;1.48;1.08;;;;;;;17.06;38.42;64761.13;5052590;28;20201;-52
2023/10/09 08:43:20;;;;;;;4.40;1.40;;;;;;;16.97;38.74;64751.22;5052333;28;20710;-52
2023/10/09 08:45:53;;;;;;;2.40;1.45;;;;;;;16.66;39.76;64720.72;5052411;28;20197;-50
2023/10/09 08:48:21;;;;;;;2.28;1.50;;;;;;;17.45;38.78;64806.66;5052090;28;20220;-50
2023/10/09 08:50:54;;;;;;;2.95;1.15;;;;;;;17.79;38.20;64839.06;5051973;28;20177;-56
2023/10/09 08:53:20;;;;;;;2.28;1.20;;;;;;;17.33;38.43;64788.34;5052302;28;20217;-54
2023/10/09 08:55:46;;;;;;;4.85;1.27;;;;;;;17.36;38.45;64794.19;5052337;28;20271;-55
2023/10/09 08:58:24;;;;;;;1.40;1.10;;;;;;;17.49;38.07;64806.00;5052445;28;20282;-54
2023/10/09 09:00:51;;;;;;;1.45;0.82;;;;;;;18.22;37.46;64888.47;5052452;28;20569;-52
2023/10/09 09:03:19;;;;;;;4.28;1.23;;;;;;;18.59;37.13;64929.28;5052212;28;20220;-54
2023/10/09 09:06:00;;;;;;;4.57;1.13;;;;;;;18.78;36.96;64949.69;5052094;28;20671;-56
2023/10/09 09:08:30;;;;;;;4.25;1.33;;;;;;;18.79;36.67;64948.22;5052162;28;20221;-54
2023/10/09 09:11:11;;;;;;;1.42;1.00;;;;;;;18.84;36.23;64956.88;5051928;28;20199;-57
2023/10/09 09:13:41;;;;;;;1.83;1.20;;;;;;;18.49;35.53;64915.16;5052116;28;20202;-54
2023/10/09 09:16:21;;;;;;;3.10;1.10;;;;;;;18.71;35.39;64939.97;5051725;28;20213;-53
2023/10/09 09:19:00;;;;;;;4.53;1.00;;;;;;;18.84;33.54;64958.88;5052238;28;20319;-54
2023/10/09 09:21:28;;;;;;;1.73;0.90;;;;;;;18.84;33.51;64958.88;5051546;28;20268;-55
2023/10/09 09:24:05;;;;;;;2.58;1.40;;;;;;;19.16;33.93;64994.19;5050749;28;20210;-50
2023/10/09 09:26:44;;;;;;;4.65;1.25;;;;;;;19.89;33.21;65069.16;5051926;28;20824;-55
2023/10/09 09:29:12;;;;;;;0.85;0.85;;;;;;;19.65;31.45;65043.19;5050851;28;20702;-60
2023/10/09 09:31:38;;;;;;;2.22;0.95;;;;;;;20.28;32.44;65114.25;5051893;28;20224;-54
2023/10/09 09:34:13;;;;;;;3.38;0.73;;;;;;;20.66;31.39;65156.81;5051830;28;20655;-54
2023/10/09 09:36:56;;;;;;;5.05;1.20;;;;;;;20.25;30.79;65108.38;5052122;28;20201;-53
2023/10/09 09:39:31;;;;;;;4.00;2.63;;;;;;;20.25;31.34;65108.38;5051698;28;20208;-54
2023/10/09 09:42:07;;;;;;;3.05;0.93;;;;;;;20.59;30.95;65145.94;5051927;28;20205;-51
2023/10/09 09:44:46;;;;;;;2.67;1.10;;;;;;;21.02;31.68;65192.94;5050122;28;20209;-55
2023/10/09 09:47:27;;;;;;;1.27;0.98;;;;;;;21.98;30.43;65298.63;5051045;28;20228;-55
2023/10/09 09:50:00;;;;;;;1.02;0.93;;;;;;;22.57;29.99;65366.47;5050236;28;20193;-52
2023/10/09 09:52:37;;;;;;;4.13;1.45;;;;;;;22.21;29.02;65329.19;5065514;28;20346;-58
2023/10/09 09:55:22;;;;;;;1.60;1.25;;;;;;;21.70;29.02;65271.28;5051444;28;20280;-55
2023/10/09 09:57:51;;;;;;;2.67;1.10;;;;;;;22.86;28.66;65396.06;5050535;28;20220;-54
2023/10/09 10:00:30;;;;;;;3.95;1.13;;;;;;;22.62;27.91;65368.91;5050516;28;20190;-52
2023/10/09 10:03:08;;;;;;;2.25;1.45;;;;;;;22.16;28.47;65321.09;5049956;28;20218;-51
2023/10/09 10:05:34;;;;;;;1.98;1.33;;;;;;;22.27;29.34;65333.25;5050640;28;20671;-53
2023/10/09 10:08:05;;;;;;;1.63;1.30;;;;;;;22.13;28.88;65315.75;5049753;28;20233;-53
2023/10/09 10:10:38;;;;;;;2.58;1.55;;;;;;;22.64;27.17;65371.69;5051154;28;20185;-52
2023/10/09 10:13:05;;;;;;;2.70;1.25;;;;;;;23.19;27.17;65432.06;5050957;28;20205;-53
2023/10/09 10:16:02;;;;;;;4.05;1.40;;;;;;;23.01;27.38;65412.66;5066484;28;20197;-52
2023/10/09 10:21:49;;;;;;;4.47;1.20;;;;;;;23.06;28.03;65417.63;5051017;28;20213;-54
2023/10/09 10:24:36;;;;;;;1.48;1.15;;;;;;;22.60;26.76;65364.69;5050915;28;20224;-50
2023/10/09 10:27:30;;;;;;;3.20;1.35;;;;;;;23.48;27.81;65464.19;5050890;28;20224;-52
2023/10/09 10:30:12;;;;;;;2.47;1.00;;;;;;;23.25;27.63;65441.81;5051060;28;20602;-54
2023/10/09 10:32:52;;;;;;;4.10;1.20;;;;;;;22.91;27.73;65401.56;5050915;28;20217;-54
2023/10/09 10:38:32;;;;;;;2.42;1.15;;;;;;;21.82;28.31;65278.31;5009161;28;20264;-51
2023/10/09 10:41:18;;;;;;;2.50;1.20;;;;;;;21.29;29.30;65222.81;5045506;28;20189;-52
2023/10/09 10:43:47;;;;;;;1.00;0.80;;;;;;;22.64;28.93;65368.56;5065893;28;20201;-52
2023/10/09 10:46:15;;;;;;;1.55;1.30;;;;;;;23.29;27.60;65445.69;5050576;28;20205;-52
2023/10/09 10:48:46;;;;;;;2.17;0.95;;;;;;;23.90;27.13;65510.19;5050590;28;20283;-53
2023/10/09 10:51:14;;;;;;;3.70;1.20;;;;;;;22.91;26.72;65403.59;5050577;28;20654;-56
2023/10/09 10:54:26;;;;;;;1.42;1.00;;;;;;;23.21;27.32;65434.81;5050433;28;20193;-54
2023/10/09 10:56:47;;;;;;;1.90;1.20;;;;;;;24.04;27.28;65525.72;5050383;28;20240;-53
2023/10/09 10:59:13;;;;;;;3.33;1.58;;;;;;;22.90;27.17;65399.91;5050286;28;20210;-54
2023/10/09 11:07:24;;;;;;;2.30;1.98;;;;;;;22.51;27.06;65357.81;5050681;28;20243;-53
2023/10/09 11:12:44;;;;;;;4.68;1.60;;;;;;;23.86;26.49;65505.75;5051776;28;20667;-57
2023/10/09 11:18:07;;;;;;;2.70;1.50;;;;;;;23.53;25.88;65469.19;5052905;28;20311;-54
2023/10/09 11:20:38;;;;;;;2.97;1.40;;;;;;;23.82;25.93;65501.31;5068677;28;20209;-56
2023/10/09 11:25:50;;;;;;;1.85;1.70;;;;;;;24.02;25.87;65526.63;5053660;28;20205;-58
2023/10/09 11:31:11;;;;;;;1.52;1.42;;;;;;;23.61;26.38;65476.03;5053817;28;20305;-55
2023/10/09 11:33:53;;;;;;;1.90;1.63;;;;;;;22.90;26.73;65397.34;5053526;28;20189;-54
2023/10/09 11:36:32;;;;;;;2.15;1.58;;;;;;;23.87;27.97;65506.88;5053538;28;20225;-52
2023/10/09 11:39:18;;;;;;;6.05;1.75;;;;;;;24.04;26.31;65525.72;5052343;28;20193;-55
2023/10/09 11:41:44;;;;;;;2.83;2.00;;;;;;;24.01;26.02;65522.94;5053421;28;20292;-57
2023/10/09 11:44:18;;;;;;;3.45;2.38;;;;;;;24.56;26.38;65580.81;5053194;28;20237;-56
2023/10/09 11:54:58;;;;;;;2.38;2.10;;;;;;;24.60;25.70;65587.84;5053096;28;20306;-57
2023/10/09 11:57:30;;;;;;;4.72;2.40;;;;;;;25.34;25.88;65668.84;5052809;28;20367;-55
2023/10/09 11:59:58;;;;;;;4.15;2.25;;;;;;;25.36;24.56;65671.06;5051978;28;20208;-52
2023/10/09 12:02:23;;;;;;;2.33;1.80;;;;;;;25.16;25.58;65646.84;5051663;28;20722;-53
2023/10/09 12:04:49;;;;;;;2.38;1.80;;;;;;;24.91;25.27;65621.69;5051841;28;20205;-52
2023/10/09 12:07:15;;;;;;;5.40;2.17;;;;;;;24.70;25.29;65595.78;5052900;28;20702;-52
2023/10/09 12:09:41;;;;;;;2.38;2.05;;;;;;;24.60;24.83;65587.84;5052836;28;20197;-51
2023/10/09 12:12:10;;;;;;;4.13;2.63;;;;;;;24.63;25.95;65588.56;5052730;28;20205;-51
2023/10/09 12:14:39;;;;;;;2.30;1.95;;;;;;;25.30;25.63;65664.97;5052899;28;20279;-52
2023/10/09 12:17:07;;;;;;;2.42;2.10;;;;;;;25.62;25.66;65697.34;5052796;28;20276;-53
2023/10/09 12:19:37;;;;;;;5.38;1.95;;;;;;;25.26;24.69;65659.97;5052723;28;20259;-54
2023/10/09 12:22:06;;;;;;;5.53;1.98;;;;;;;24.75;24.66;65604.47;5052987;28;20213;-53
2023/10/09 12:24:33;;;;;;;4.38;2.40;;;;;;;24.52;25.31;65578.41;5052017;28;20268;-58
2023/10/09 12:26:59;;;;;;;3.38;1.60;;;;;;;23.48;25.96;65463.63;5052799;28;20217;-54
2023/10/09 12:29:30;;;;;;;3.50;1.88;;;;;;;23.90;25.84;65512.75;5052589;28;20690;-55
2023/10/09 12:31:59;;;;;;;3.20;1.52;;;;;;;24.67;26.38;65595.59;5051242;28;20271;-54
2023/10/09 12:34:26;;;;;;;3.60;1.63;;;;;;;25.19;26.05;65649.63;5052519;28;20729;-54
2023/10/09 12:37:01;;;;;;;4.03;1.80;;;;;;;25.45;24.63;65681.63;5052624;28;20263;-55
2023/10/09 12:39:33;;;;;;;1.90;1.50;;;;;;;25.36;24.94;65671.06;5052537;28;20697;-55
2023/10/09 12:42:06;;;;;;;1.30;1.20;;;;;;;24.29;24.78;65550.88;5052621;28;20213;-54
2023/10/09 12:44:42;;;;;;;2.35;1.27;;;;;;;23.98;25.10;65519.03;5052811;28;20201;-55
2023/10/09 12:47:11;;;;;;;1.77;1.48;;;;;;;24.46;25.25;65571.75;5052244;28;20306;-54
2023/10/09 12:49:40;;;;;;;3.90;1.65;;;;;;;24.94;24.48;65619.84;5050934;28;20221;-55
2023/10/09 12:52:15;;;;;;;1.63;1.20;;;;;;;25.14;25.02;65646.66;5052425;28;20217;-56
2023/10/09 12:54:42;;;;;;;4.55;2.20;;;;;;;25.35;24.35;65669.97;5067661;28;20281;-55
2023/10/09 12:57:13;;;;;;;1.75;1.38;;;;;;;25.66;23.62;65707.53;5052055;28;20747;-55
2023/10/09 12:59:44;;;;;;;3.55;1.30;;;;;;;25.36;23.92;65671.63;5052124;28;20189;-55
2023/10/09 13:02:11;;;;;;;3.00;1.38;;;;;;;24.94;24.68;65622.44;5052083;28;20266;-55
2023/10/09 13:04:41;;;;;;;2.95;1.30;;;;;;;25.34;23.68;65668.84;5052089;28;20233;-54
2023/10/09 13:07:07;;;;;;;3.40;1.63;;;;;;;25.38;24.19;65670.69;5052027;28;20234;-52
2023/10/09 13:09:42;;;;;;;2.70;1.10;;;;;;;25.02;23.47;65630.75;5051966;28;20190;-52
2023/10/09 13:12:14;;;;;;;1.63;0.88;;;;;;;24.48;22.32;65573.97;5051790;28;20694;-52
2023/10/09 13:14:41;;;;;;;2.20;1.27;;;;;;;24.59;23.80;65586.72;5034615;28;20290;-52
2023/10/09 13:17:09;;;;;;;3.50;1.05;;;;;;;24.86;23.45;65616.69;5051715;28;20241;-53
2023/10/09 13:19:35;;;;;;;2.03;1.30;;;;;;;24.27;23.68;65550.66;5051804;28;20178;-53
2023/10/09 13:22:03;;;;;;;2.30;1.08;;;;;;;24.44;23.89;65569.53;5051963;28;20265;-52
2023/10/09 13:24:30;;;;;;;2.47;1.17;;;;;;;24.72;24.83;65598.56;5050340;28;20636;-52
2023/10/09 13:26:58;;;;;;;1.77;1.50;;;;;;;24.98;24.01;65627.44;5066894;28;20308;-54
2023/10/09 13:29:24;;;;;;;2.67;1.20;;;;;;;25.01;23.84;65629.66;5051455;28;20205;-57
2023/10/09 13:31:52;;;;;;;1.90;1.13;;;;;;;24.70;23.75;65598.38;5051755;28;20243;-52
2023/10/09 13:34:18;;;;;;;2.47;0.95;;;;;;;24.23;23.29;65546.78;5050037;28;20694;-52
2023/10/09 13:36:53;;;;;;;1.50;1.08;;;;;;;24.71;23.68;65600.03;5051379;28;20218;-51
2023/10/09 13:39:25;;;;;;;2.85;1.10;;;;;;;24.82;23.68;65612.25;5066784;28;20262;-52
2023/10/09 13:41:58;;;;;;;1.92;1.15;;;;;;;24.99;23.31;65630.56;5051167;28;20687;-51
2023/10/09 13:44:30;;;;;;;2.63;1.70;;;;;;;24.90;23.90;65621.13;5051360;28;20201;-52
2023/10/09 13:47:19;;;;;;;4.90;1.48;;;;;;;24.58;24.02;65585.63;5051449;28;20205;-52
2023/10/09 13:49:52;;;;;;;1.67;1.02;;;;;;;24.05;23.63;65527.41;5051181;28;20189;-52
2023/10/09 13:52:18;;;;;;;3.90;1.27;;;;;;;24.41;23.58;65566.75;5051541;28;20202;-53
2023/10/09 13:54:48;;;;;;;3.63;1.38;;;;;;;24.66;24.06;65594.50;5051199;28;20197;-51
2023/10/09 13:57:15;;;;;;;2.50;1.42;;;;;;;24.65;23.39;65592.81;5051447;28;20197;-52
2023/10/09 13:59:49;;;;;;;2.25;1.50;;;;;;;24.60;23.54;65590.41;5049694;28;20288;-53
2023/10/09 14:02:18;;;;;;;4.63;2.00;;;;;;;24.29;22.80;65552.88;5066371;28;20209;-52
2023/10/09 14:04:48;;;;;;;1.80;1.38;;;;;;;24.19;22.16;65542.34;5051039;28;20210;-52
2023/10/09 14:07:17;;;;;;;2.65;1.17;;;;;;;24.20;22.13;65542.91;5033278;28;20218;-55
2023/10/09 14:12:10;;;;;;;1.10;1.00;;;;;;;24.15;22.87;65537.91;5049775;28;20351;-52
2023/10/09 14:14:46;;;;;;;3.83;1.58;;;;;;;24.33;23.00;65557.88;5050540;28;20297;-52
2023/10/09 14:17:23;;;;;;;3.45;1.40;;;;;;;24.33;22.56;65557.31;5050802;28;20247;-51
2023/10/09 14:19:51;;;;;;;5.45;1.92;;;;;;;24.17;23.25;65540.69;5050766;28;20216;-56
2023/10/09 14:22:26;;;;;;;2.67;1.73;;;;;;;23.98;23.36;65519.59;5050742;28;20687;-59
2023/10/09 14:24:56;;;;;;;3.83;1.35;;;;;;;23.81;23.39;65497.63;5049308;28;20193;-52
2023/10/09 14:27:29;;;;;;;5.82;1.45;;;;;;;23.92;23.88;65512.41;5050208;28;20814;-53
2023/10/09 14:29:58;;;;;;;5.28;1.73;;;;;;;24.09;24.30;65528.69;5050595;28;20196;-52
2023/10/09 14:32:28;;;;;;;2.85;1.48;;;;;;;24.06;23.80;65525.34;5065957;28;20243;-53
2023/10/09 14:35:12;;;;;;;2.85;1.70;;;;;;;23.90;25.46;65510.75;5050476;28;20212;-53
2023/10/09 14:37:39;;;;;;;4.13;2.10;;;;;;;23.83;25.92;65499.84;5049280;28;20217;-55
2023/10/09 14:40:12;;;;;;;6.00;2.30;;;;;;;23.57;26.95;65473.63;5050427;28;20202;-54
2023/10/09 14:42:45;;;;;;;2.47;1.88;;;;;;;23.40;26.53;65457.34;5049311;28;20710;-54
2023/10/09 14:45:16;;;;;;;4.35;1.70;;;;;;;23.35;25.54;65450.34;5050290;28;20576;-52